Hammondsville, Ohio
Current Conditions -  °F | °C
As of 6:51 PM on Sunday 23 Nov 2014 (Local Time) from KPIT Reporting Station
Overcast Overcast  
Wind Chill: 14°   Ceiling: 13000
Heat Index: 14°   Visibility: 10mi
Dew Point:   Wind: 14mph
Humidity: 49%   Direction: 130°SE
Pressure: 29.74"   Gusts: NA
Location:  40.56°N, 80.71°W
Report Text: KPIT 232351Z 13012KT 10SM BKN130 OVC220 14/04 A2974 RMK AO2 SLP077 T01440039 10172 20144 58036
Loading
Personal Weather Stations






























Interactive Weather Map New forecast layout! Learn more

10-Day Weather Forecast

Advertisements
Track Severe Weather on mobile